Time;durP1;ratioP1;P1;durP2;ratioP2;P2;SDS_P1;SDS_P2;PMS_P1;PMS_P2;Temp;Humidity;BMP_temperature;BMP_pressure;BME280_temperature;BME280_humidity;BME280_pressure;Samples;Min_cycle;Max_cycle;Signal;HPM_P1;HPM_P2
2022/12/02 00:00:34;;;;;;;25.50;16.67;;;11.30;58.30;;;;;;5049121;28;20591;-51
2022/12/02 00:03:00;;;;;;;22.97;15.33;;;11.30;58.40;;;;;;5044318;28;20466;-55
2022/12/02 00:05:33;;;;;;;23.63;15.40;;;11.20;58.30;;;;;;5047173;28;20434;-54
2022/12/02 00:08:01;;;;;;;27.13;17.17;;;11.30;58.40;;;;;;5052054;28;20192;-52
2022/12/02 00:10:29;;;;;;;26.70;16.50;;;11.20;58.40;;;;;;5056821;28;20504;-53
2022/12/02 00:13:07;;;;;;;21.00;15.67;;;11.20;58.70;;;;;;5057068;28;20447;-52
2022/12/02 00:15:44;;;;;;;23.10;15.17;;;11.10;59.00;;;;;;5053938;28;20486;-51
2022/12/02 00:18:11;;;;;;;21.93;15.37;;;11.10;59.00;;;;;;5049298;28;20492;-54
2022/12/02 00:20:38;;;;;;;22.83;16.87;;;11.10;58.90;;;;;;5048429;28;20447;-53
2022/12/02 00:23:04;;;;;;;23.43;15.10;;;11.10;58.70;;;;;;5046351;28;21918;-52
2022/12/02 00:25:30;;;;;;;25.57;15.63;;;11.10;58.80;;;;;;5051748;28;20462;-51
2022/12/02 00:27:57;;;;;;;24.17;16.77;;;11.10;58.90;;;;;;5057546;28;20440;-53
2022/12/02 00:30:22;;;;;;;18.93;13.53;;;11.10;59.30;;;;;;5053416;28;20540;-54
2022/12/02 00:32:48;;;;;;;25.20;16.00;;;11.10;58.70;;;;;;5055215;28;20430;-52
2022/12/02 00:35:14;;;;;;;27.00;15.77;;;11.10;58.70;;;;;;5055793;28;20184;-53
2022/12/02 00:37:40;;;;;;;22.20;15.23;;;11.20;58.70;;;;;;5052319;28;20200;-50
2022/12/02 00:40:06;;;;;;;24.77;16.50;;;11.20;58.70;;;;;;5050467;28;20439;-51
2022/12/02 00:42:32;;;;;;;25.63;15.70;;;11.20;58.60;;;;;;5059223;28;20193;-52
2022/12/02 00:47:42;;;;;;;23.20;15.87;;;11.10;58.60;;;;;;5049272;28;21529;-49
2022/12/02 00:50:08;;;;;;;23.13;16.13;;;11.10;58.80;;;;;;5051201;28;20474;-52
2022/12/02 00:52:33;;;;;;;23.50;16.10;;;11.10;58.90;;;;;;5049350;28;20262;-52
2022/12/02 00:54:59;;;;;;;23.70;15.63;;;11.10;58.70;;;;;;5058975;28;20445;-52
2022/12/02 00:57:24;;;;;;;22.23;14.80;;;11.20;58.80;;;;;;5050213;28;20229;-51
2022/12/02 00:59:50;;;;;;;20.43;14.87;;;11.20;58.80;;;;;;5049761;28;20192;-51
2022/12/02 01:02:15;;;;;;;24.03;16.33;;;11.20;58.80;;;;;;5045795;28;20185;-53
2022/12/02 01:04:41;;;;;;;22.37;15.10;;;11.20;58.80;;;;;;5051137;28;20283;-52
2022/12/02 01:07:06;;;;;;;21.43;14.60;;;11.20;58.80;;;;;;5054503;28;20609;-51
2022/12/02 01:09:32;;;;;;;22.33;15.53;;;11.10;58.90;;;;;;5037620;28;20229;-54
2022/12/02 01:11:57;;;;;;;20.93;14.30;;;11.20;58.90;;;;;;5052391;28;20227;-53
2022/12/02 01:14:24;;;;;;;22.07;15.57;;;11.20;58.90;;;;;;5048427;28;20193;-50
2022/12/02 01:16:49;;;;;;;27.53;15.40;;;11.20;58.90;;;;;;5054430;28;22196;-53
2022/12/02 01:19:15;;;;;;;25.33;15.33;;;11.20;58.90;;;;;;5050878;28;20477;-53
2022/12/02 01:21:40;;;;;;;21.10;15.00;;;11.20;58.90;;;;;;5054513;28;20718;-50
2022/12/02 01:24:06;;;;;;;23.70;15.57;;;11.20;58.90;;;;;;5053590;28;20193;-53
2022/12/02 01:26:31;;;;;;;19.57;14.90;;;11.20;58.70;;;;;;5051666;28;20196;-53
2022/12/02 01:28:57;;;;;;;23.80;16.03;;;11.10;58.90;;;;;;5032546;28;20227;-50
2022/12/02 01:31:22;;;;;;;22.50;16.00;;;11.10;59.00;;;;;;5057108;28;20654;-53
2022/12/02 01:33:48;;;;;;;22.83;15.27;;;11.10;58.90;;;;;;5049363;28;20588;-54
2022/12/02 01:36:14;;;;;;;21.90;14.50;;;11.10;58.80;;;;;;5051733;28;20188;-54
2022/12/02 01:38:39;;;;;;;20.07;15.17;;;11.10;58.70;;;;;;5051408;28;20201;-53
2022/12/02 01:41:05;;;;;;;19.90;14.47;;;11.10;58.60;;;;;;5049177;28;20562;-54
2022/12/02 01:43:31;;;;;;;18.07;14.17;;;11.10;58.70;;;;;;5049701;28;20193;-51
2022/12/02 01:45:57;;;;;;;20.93;14.50;;;11.10;58.70;;;;;;5052660;28;21199;-54
2022/12/02 01:48:25;;;;;;;21.17;14.60;;;11.10;58.70;;;;;;5057558;28;20211;-53
2022/12/02 01:50:51;;;;;;;22.00;15.37;;;11.10;58.60;;;;;;5051256;28;20486;-53
2022/12/02 01:53:16;;;;;;;17.00;13.30;;;11.10;58.60;;;;;;5056166;28;20442;-51
2022/12/02 01:55:42;;;;;;;20.13;14.20;;;11.10;58.60;;;;;;5055007;28;20197;-52
2022/12/02 01:58:11;;;;;;;23.17;15.37;;;11.20;58.70;;;;;;5051833;28;20615;-50
2022/12/02 02:00:37;;;;;;;25.00;16.00;;;11.20;58.70;;;;;;5051979;28;20250;-53
2022/12/02 02:03:02;;;;;;;21.13;13.90;;;11.20;58.80;;;;;;5056453;28;20941;-50
2022/12/02 02:05:30;;;;;;;21.63;16.20;;;11.20;59.40;;;;;;5054016;28;20446;-54
2022/12/02 02:08:02;;;;;;;22.07;15.43;;;11.20;58.80;;;;;;5052667;28;20224;-54
2022/12/02 02:10:28;;;;;;;21.53;15.63;;;11.20;58.80;;;;;;5049920;28;20487;-52
2022/12/02 02:12:54;;;;;;;23.70;15.33;;;11.20;58.90;;;;;;5054312;28;20438;-53
2022/12/02 02:15:21;;;;;;;17.30;13.33;;;11.20;58.90;;;;;;5052716;28;20430;-53
2022/12/02 02:17:47;;;;;;;20.07;14.57;;;11.20;59.10;;;;;;5052154;28;20957;-50
2022/12/02 02:20:17;;;;;;;20.87;15.00;;;11.20;59.10;;;;;;5062615;28;20445;-53
2022/12/02 02:22:50;;;;;;;20.63;14.80;;;11.20;59.20;;;;;;5049631;28;20447;-53
2022/12/02 02:25:17;;;;;;;22.27;14.57;;;11.20;59.10;;;;;;5055741;28;20482;-52
2022/12/02 02:27:49;;;;;;;24.57;15.50;;;11.20;59.10;;;;;;5057071;28;21245;-52
2022/12/02 02:30:14;;;;;;;21.33;15.00;;;11.20;59.10;;;;;;5060899;28;20536;-54
2022/12/02 02:32:40;;;;;;;19.80;13.30;;;11.20;59.20;;;;;;5055489;28;20529;-52
2022/12/02 02:35:07;;;;;;;22.13;14.80;;;11.20;59.10;;;;;;5055737;28;20184;-53
2022/12/02 02:37:33;;;;;;;24.10;16.03;;;11.20;59.10;;;;;;5068258;28;20529;-53
2022/12/02 02:39:58;;;;;;;28.03;15.10;;;11.20;59.10;;;;;;5060487;28;20555;-52
2022/12/02 02:42:24;;;;;;;19.97;15.23;;;11.20;59.20;;;;;;5060474;28;20529;-52
2022/12/02 02:44:50;;;;;;;22.30;14.57;;;11.10;59.10;;;;;;5051164;28;20196;-51
2022/12/02 02:47:16;;;;;;;22.43;14.97;;;11.20;59.10;;;;;;5049519;28;20446;-52
2022/12/02 02:49:42;;;;;;;22.20;14.90;;;11.10;59.10;;;;;;5054889;28;20792;-52
2022/12/02 02:52:07;;;;;;;23.03;15.03;;;11.10;59.30;;;;;;5062295;28;20434;-53
2022/12/02 02:54:33;;;;;;;23.13;16.53;;;11.00;59.20;;;;;;5052714;28;20426;-54
2022/12/02 02:56:59;;;;;;;20.60;15.03;;;11.00;59.20;;;;;;5054425;28;20184;-52
2022/12/02 02:59:24;;;;;;;18.33;14.30;;;11.00;59.20;;;;;;5050562;28;20200;-53
2022/12/02 03:01:51;;;;;;;22.00;16.43;;;11.10;59.20;;;;;;5048006;28;21996;-53
2022/12/02 03:04:18;;;;;;;25.17;15.20;;;11.10;59.10;;;;;;5052459;28;20266;-50
2022/12/02 03:06:44;;;;;;;21.27;14.80;;;11.00;59.30;;;;;;5055917;28;20442;-53
2022/12/02 03:09:13;;;;;;;20.03;14.53;;;11.10;59.30;;;;;;5057223;28;20470;-53
2022/12/02 03:11:40;;;;;;;21.50;14.90;;;11.10;59.10;;;;;;5050114;28;20482;-53
2022/12/02 03:14:07;;;;;;;21.80;15.20;;;11.10;59.00;;;;;;5053391;28;20525;-54
2022/12/02 03:16:33;;;;;;;19.37;13.37;;;11.10;59.10;;;;;;5052379;28;20442;-51
2022/12/02 03:18:59;;;;;;;20.87;14.50;;;11.10;59.00;;;;;;5056818;28;20801;-51
2022/12/02 03:21:25;;;;;;;22.33;16.20;;;11.10;59.00;;;;;;5053738;28;20443;-50
2022/12/02 03:23:54;;;;;;;21.93;14.80;;;11.10;59.20;;;;;;5053504;28;20430;-50
2022/12/02 03:26:20;;;;;;;22.67;14.13;;;11.10;59.20;;;;;;5053127;28;20966;-51
2022/12/02 03:28:46;;;;;;;24.50;14.50;;;11.10;59.20;;;;;;5052468;28;20442;-50
2022/12/02 03:31:13;;;;;;;22.70;14.70;;;11.10;59.20;;;;;;5049934;28;20445;-50
2022/12/02 03:33:40;;;;;;;20.27;14.10;;;11.10;59.30;;;;;;5051951;28;20942;-50
2022/12/02 03:36:06;;;;;;;20.67;14.70;;;11.10;59.30;;;;;;5048724;28;20465;-49
2022/12/02 03:38:32;;;;;;;22.53;15.73;;;11.10;59.40;;;;;;5051789;28;20450;-51
2022/12/02 03:41:00;;;;;;;22.50;14.47;;;11.10;59.60;;;;;;5051996;28;20443;-50
2022/12/02 03:43:25;;;;;;;20.80;15.93;;;11.00;59.70;;;;;;5051968;28;20435;-53
2022/12/02 03:45:51;;;;;;;20.43;14.57;;;11.00;59.80;;;;;;5051923;28;20439;-52
2022/12/02 03:48:20;;;;;;;21.73;14.73;;;11.00;59.70;;;;;;5047911;28;20192;-53
2022/12/02 03:50:47;;;;;;;23.93;14.00;;;11.00;59.60;;;;;;5050462;28;20578;-53
2022/12/02 03:53:13;;;;;;;18.93;14.10;;;11.00;59.70;;;;;;5053154;28;20439;-51
2022/12/02 03:55:39;;;;;;;20.83;14.30;;;10.90;59.60;;;;;;5051511;28;20945;-51
2022/12/02 03:58:06;;;;;;;24.20;14.73;;;10.90;60.00;;;;;;5049963;28;20212;-52
2022/12/02 04:00:33;;;;;;;19.43;14.23;;;10.90;59.90;;;;;;5052830;28;20922;-53
2022/12/02 04:02:58;;;;;;;23.03;15.17;;;10.90;59.70;;;;;;5046470;28;20478;-52
2022/12/02 04:05:24;;;;;;;22.67;15.37;;;10.90;59.90;;;;;;5048540;28;20447;-53
2022/12/02 04:07:50;;;;;;;20.23;14.20;;;10.90;59.80;;;;;;5047532;28;20193;-53
2022/12/02 04:10:15;;;;;;;20.30;14.40;;;10.90;59.80;;;;;;5048888;28;20246;-51
2022/12/02 04:12:41;;;;;;;19.93;14.70;;;10.90;59.80;;;;;;5047545;28;20200;-50
2022/12/02 04:15:07;;;;;;;26.43;16.77;;;10.80;59.60;;;;;;5047685;28;20663;-52
2022/12/02 04:17:32;;;;;;;24.20;14.97;;;10.80;59.60;;;;;;5050658;28;20224;-53
2022/12/02 04:19:58;;;;;;;19.90;13.73;;;10.70;59.90;;;;;;5048144;28;20481;-53
2022/12/02 04:22:23;;;;;;;23.00;16.40;;;10.70;59.90;;;;;;5047179;28;20194;-51
2022/12/02 04:24:49;;;;;;;21.17;14.37;;;10.80;59.90;;;;;;5045443;28;20207;-52
2022/12/02 04:27:15;;;;;;;19.50;14.00;;;10.80;59.80;;;;;;5046902;28;20184;-50
2022/12/02 04:29:40;;;;;;;18.97;14.40;;;10.80;59.70;;;;;;5047687;28;20680;-51
2022/12/02 04:32:06;;;;;;;24.10;15.20;;;10.80;59.80;;;;;;5051831;28;20193;-52
2022/12/02 04:34:31;;;;;;;20.27;14.77;;;10.90;59.70;;;;;;5050018;28;20216;-53
2022/12/02 04:36:57;;;;;;;23.37;15.30;;;10.90;59.70;;;;;;5050254;28;20203;-53
2022/12/02 04:39:22;;;;;;;21.13;14.80;;;11.00;59.70;;;;;;5058208;28;20202;-52
2022/12/02 04:41:48;;;;;;;19.97;13.97;;;10.90;59.60;;;;;;5050750;28;20193;-53
2022/12/02 04:44:14;;;;;;;21.63;14.60;;;10.90;59.90;;;;;;5055011;28;20300;-53
2022/12/02 04:46:39;;;;;;;19.30;13.50;;;10.90;59.90;;;;;;5054149;28;20185;-50
2022/12/02 04:49:05;;;;;;;22.00;14.30;;;10.90;59.90;;;;;;5051995;28;20228;-53
2022/12/02 04:51:31;;;;;;;20.80;15.00;;;10.90;59.90;;;;;;5049568;28;20616;-53
2022/12/02 04:53:57;;;;;;;24.37;14.73;;;10.90;59.90;;;;;;5047281;28;20196;-50
2022/12/02 04:56:23;;;;;;;19.83;13.23;;;10.90;59.90;;;;;;5050683;28;20473;-51
2022/12/02 04:58:48;;;;;;;22.63;13.90;;;10.90;60.00;;;;;;5054281;28;20188;-52
2022/12/02 05:01:14;;;;;;;21.57;14.40;;;10.90;59.90;;;;;;5048010;28;20559;-53
2022/12/02 05:03:39;;;;;;;20.83;14.60;;;10.80;59.80;;;;;;5050502;28;20270;-53
2022/12/02 05:06:05;;;;;;;23.67;14.50;;;10.90;60.20;;;;;;5049591;28;20563;-53
2022/12/02 05:08:31;;;;;;;22.57;16.10;;;10.80;59.90;;;;;;5053984;28;20194;-53
2022/12/02 05:10:56;;;;;;;20.17;14.17;;;10.90;60.00;;;;;;5055730;28;20984;-51
2022/12/02 05:13:22;;;;;;;20.70;14.00;;;10.90;60.00;;;;;;5059069;28;20671;-52
2022/12/02 05:15:47;;;;;;;20.50;15.17;;;11.00;60.00;;;;;;5057550;28;20195;-52
2022/12/02 05:18:13;;;;;;;19.63;14.80;;;11.00;59.80;;;;;;5059219;28;20203;-54
2022/12/02 05:20:38;;;;;;;30.03;15.80;;;11.00;59.80;;;;;;5050184;28;20227;-53
2022/12/02 05:23:04;;;;;;;20.77;14.47;;;11.00;59.80;;;;;;5062484;28;20200;-50
2022/12/02 05:25:29;;;;;;;20.77;14.97;;;10.90;59.70;;;;;;5052122;28;20188;-51
2022/12/02 05:27:55;;;;;;;18.60;13.37;;;11.00;59.90;;;;;;5057970;28;20191;-51
2022/12/02 05:30:21;;;;;;;20.23;13.77;;;11.00;60.00;;;;;;5055041;28;20282;-54
2022/12/02 05:32:46;;;;;;;22.60;14.80;;;11.00;60.00;;;;;;5050088;28;20652;-54
2022/12/02 05:35:12;;;;;;;26.77;14.50;;;11.00;60.00;;;;;;5048363;28;20185;-54
2022/12/02 05:37:37;;;;;;;19.60;14.30;;;11.00;59.90;;;;;;5050762;28;20203;-53
2022/12/02 05:40:04;;;;;;;20.33;14.90;;;10.90;60.00;;;;;;5049959;28;20207;-53
2022/12/02 05:42:29;;;;;;;22.37;15.40;;;10.90;60.00;;;;;;5057509;28;20185;-55
2022/12/02 05:45:00;;;;;;;23.90;15.80;;;10.90;60.10;;;;;;5048433;28;20796;-55
2022/12/02 05:47:27;;;;;;;20.03;14.47;;;11.00;60.00;;;;;;5048568;28;20192;-55
2022/12/02 05:49:53;;;;;;;22.10;13.97;;;11.00;59.90;;;;;;5059269;28;20483;-56
2022/12/02 05:52:22;;;;;;;20.03;14.00;;;11.00;60.00;;;;;;5048039;28;20447;-55
2022/12/02 05:54:50;;;;;;;18.67;13.20;;;11.00;59.90;;;;;;5047496;28;20326;-54
2022/12/02 05:57:19;;;;;;;20.10;14.20;;;10.90;60.10;;;;;;5048052;28;20546;-56
2022/12/02 05:59:44;;;;;;;21.30;13.63;;;10.90;60.30;;;;;;5056559;28;21143;-55
2022/12/02 06:02:32;;;;;;;25.70;15.80;;;11.00;60.30;;;;;;5050291;28;20465;-57
2022/12/02 06:04:57;;;;;;;20.23;14.23;;;11.00;60.60;;;;;;5051662;28;20192;-56
2022/12/02 06:07:23;;;;;;;20.83;14.33;;;11.00;60.50;;;;;;5050479;28;20533;-57
2022/12/02 06:09:52;;;;;;;21.60;15.00;;;10.90;60.50;;;;;;5054181;28;20215;-56
2022/12/02 06:12:19;;;;;;;22.57;13.80;;;10.90;60.80;;;;;;5056176;28;20218;-56
2022/12/02 06:14:51;;;;;;;24.80;14.93;;;10.90;60.90;;;;;;5055334;28;20434;-56
2022/12/02 06:17:17;;;;;;;19.90;14.93;;;10.90;61.20;;;;;;5051977;28;20953;-57
2022/12/02 06:19:43;;;;;;;24.13;15.43;;;10.90;61.40;;;;;;5048586;28;20442;-57
2022/12/02 06:22:16;;;;;;;20.83;15.20;;;10.90;61.50;;;;;;5047796;28;20461;-57
2022/12/02 06:24:41;;;;;;;24.23;15.67;;;10.90;61.30;;;;;;5048150;28;20193;-58
2022/12/02 06:27:12;;;;;;;23.03;14.33;;;11.00;61.60;;;;;;5062962;28;20975;-57
2022/12/02 06:29:46;;;;;;;21.00;14.40;;;11.10;61.80;;;;;;5063860;28;20594;-58
2022/12/02 06:32:16;;;;;;;22.83;14.33;;;11.30;61.80;;;;;;5049253;28;20906;-57
2022/12/02 06:34:43;;;;;;;24.77;15.73;;;11.40;60.90;;;;;;5056844;28;20473;-58
2022/12/02 06:37:31;;;;;;;23.50;15.37;;;11.50;60.90;;;;;;5052369;28;20469;-58
2022/12/02 06:39:59;;;;;;;23.77;15.70;;;11.60;60.70;;;;;;5051361;28;20470;-58
2022/12/02 06:42:37;;;;;;;23.20;14.17;;;11.80;60.30;;;;;;5047233;28;20454;-57
2022/12/02 06:45:13;;;;;;;20.93;15.23;;;11.90;59.90;;;;;;5046005;28;20443;-58
2022/12/02 06:47:41;;;;;;;22.80;15.20;;;12.00;60.20;;;;;;5040350;28;20508;-58
2022/12/02 06:50:07;;;;;;;22.27;15.80;;;12.10;59.30;;;;;;5044274;28;20491;-58
2022/12/02 06:52:36;;;;;;;25.93;15.30;;;12.10;58.90;;;;;;5045248;28;20443;-58
2022/12/02 06:55:06;;;;;;;21.77;14.60;;;12.20;58.60;;;;;;5046771;28;20231;-58
2022/12/02 06:57:32;;;;;;;27.73;17.27;;;12.20;58.80;;;;;;5046397;28;20513;-58
2022/12/02 06:59:57;;;;;;;20.50;16.07;;;12.20;58.30;;;;;;5048125;28;20442;-58
2022/12/02 07:02:29;;;;;;;23.37;15.90;;;12.20;58.20;;;;;;5047459;28;20611;-58
2022/12/02 07:04:55;;;;;;;20.80;15.93;;;12.20;58.20;;;;;;5048720;28;20644;-58
2022/12/02 07:07:31;;;;;;;21.60;15.23;;;12.20;58.20;;;;;;5041498;28;20447;-57
2022/12/02 07:10:05;;;;;;;31.17;16.90;;;12.20;58.00;;;;;;5046845;28;20498;-57
2022/12/02 07:12:42;;;;;;;24.63;16.73;;;12.20;57.80;;;;;;5052613;28;20891;-57
2022/12/02 07:15:08;;;;;;;20.60;15.50;;;12.20;57.70;;;;;;5052931;28;20939;-58
2022/12/02 07:17:41;;;;;;;23.30;15.13;;;12.10;57.80;;;;;;5050339;28;20443;-56
2022/12/02 07:20:08;;;;;;;25.97;18.43;;;12.10;58.10;;;;;;5068830;28;20188;-56
2022/12/02 07:22:44;;;;;;;26.90;19.00;;;12.00;58.20;;;;;;5053520;28;20482;-57
2022/12/02 07:25:16;;;;;;;25.87;17.60;;;12.00;58.10;;;;;;5052125;28;20446;-57
2022/12/02 07:27:47;;;;;;;25.60;17.30;;;12.00;58.20;;;;;;5046596;28;20525;-56
2022/12/02 07:30:33;;;;;;;27.30;16.90;;;11.90;58.20;;;;;;5051846;28;20522;-58
2022/12/02 07:32:59;;;;;;;24.37;16.33;;;11.90;58.30;;;;;;5052354;28;20936;-57
2022/12/02 07:35:25;;;;;;;24.60;15.87;;;11.80;58.50;;;;;;5052986;28;20477;-58
2022/12/02 07:37:51;;;;;;;25.80;16.73;;;11.80;58.70;;;;;;5049805;28;20527;-57
2022/12/02 07:40:18;;;;;;;24.70;16.57;;;11.80;58.50;;;;;;5060813;28;21003;-57
2022/12/02 07:42:44;;;;;;;26.70;16.17;;;11.80;58.60;;;;;;5053098;28;20470;-58
2022/12/02 07:45:15;;;;;;;24.20;15.53;;;11.70;58.50;;;;;;5052296;28;20443;-58
2022/12/02 07:47:40;;;;;;;26.13;16.80;;;11.60;58.70;;;;;;5051302;28;20462;-59
2022/12/02 07:50:08;;;;;;;25.30;16.03;;;11.60;58.90;;;;;;5049963;28;20584;-58
2022/12/02 07:52:34;;;;;;;24.97;15.77;;;11.60;59.00;;;;;;5052960;28;20205;-58
2022/12/02 07:55:00;;;;;;;25.93;16.00;;;11.60;59.10;;;;;;5046245;28;20938;-56
2022/12/02 07:57:25;;;;;;;25.87;15.43;;;11.60;59.20;;;;;;5047038;28;20474;-57
2022/12/02 07:59:51;;;;;;;24.37;17.87;;;11.60;59.20;;;;;;5056255;28;20187;-57
2022/12/02 08:02:17;;;;;;;23.53;14.70;;;11.50;59.30;;;;;;5046198;28;20189;-57
2022/12/02 08:04:42;;;;;;;30.13;17.90;;;11.50;59.50;;;;;;5046452;28;20217;-58
2022/12/02 08:07:08;;;;;;;27.40;16.10;;;11.40;59.80;;;;;;5046484;28;20196;-58
2022/12/02 08:09:33;;;;;;;31.27;16.83;;;11.30;60.00;;;;;;5034208;28;20680;-59
2022/12/02 08:11:59;;;;;;;26.13;16.77;;;11.30;60.10;;;;;;5051023;28;20193;-59
2022/12/02 08:14:24;;;;;;;23.40;15.80;;;11.20;60.30;;;;;;5049482;28;20279;-59
2022/12/02 08:16:50;;;;;;;22.40;15.60;;;11.10;60.40;;;;;;5048458;28;20192;-58
2022/12/02 08:19:15;;;;;;;25.77;16.63;;;11.10;60.60;;;;;;5049417;28;20223;-58
2022/12/02 08:21:41;;;;;;;24.60;16.57;;;11.20;60.80;;;;;;5049388;28;20228;-58
2022/12/02 08:24:07;;;;;;;25.70;16.97;;;11.10;61.80;;;;;;5048547;28;20192;-58
2022/12/02 08:26:33;;;;;;;26.13;16.60;;;11.10;61.10;;;;;;5048495;28;20679;-58
2022/12/02 08:28:59;;;;;;;28.30;16.63;;;11.10;61.40;;;;;;5053374;28;20214;-59
2022/12/02 08:31:25;;;;;;;29.53;17.03;;;11.10;61.40;;;;;;5053154;28;20810;-58
2022/12/02 08:33:51;;;;;;;27.60;16.87;;;11.10;61.70;;;;;;5047411;28;20197;-58
2022/12/02 08:36:17;;;;;;;24.97;16.10;;;11.00;61.90;;;;;;5049537;28;20447;-60
2022/12/02 08:38:43;;;;;;;22.57;15.40;;;11.00;62.10;;;;;;5048399;28;20938;-59
2022/12/02 08:41:09;;;;;;;22.80;16.93;;;10.90;62.20;;;;;;5049258;28;20300;-59
2022/12/02 08:43:35;;;;;;;20.17;14.73;;;10.80;62.60;;;;;;5049564;28;20439;-60
2022/12/02 08:46:00;;;;;;;23.33;15.73;;;10.80;62.70;;;;;;5051200;28;20492;-59
2022/12/02 08:48:26;;;;;;;24.37;16.07;;;10.80;63.00;;;;;;5045332;28;20640;-59
2022/12/02 08:50:53;;;;;;;21.20;14.40;;;10.80;62.90;;;;;;5046458;28;20667;-60
2022/12/02 08:53:20;;;;;;;21.13;15.00;;;10.80;62.90;;;;;;5046505;28;20605;-59
2022/12/02 08:55:45;;;;;;;20.93;14.80;;;10.80;62.90;;;;;;5050071;28;20489;-59
2022/12/02 08:58:11;;;;;;;19.07;14.40;;;10.80;62.90;;;;;;5040324;28;20447;-59
2022/12/02 09:00:39;;;;;;;23.73;14.87;;;10.80;63.10;;;;;;5035097;28;20500;-60
2022/12/02 09:03:07;;;;;;;17.93;13.17;;;10.80;63.10;;;;;;5039522;28;20267;-60
2022/12/02 09:05:34;;;;;;;19.93;13.97;;;10.80;63.10;;;;;;5039884;28;21236;-60
2022/12/02 09:08:00;;;;;;;22.40;14.53;;;10.80;63.40;;;;;;5046736;28;20450;-60
2022/12/02 09:10:25;;;;;;;21.33;13.77;;;10.80;63.20;;;;;;5034611;28;20994;-60
2022/12/02 09:12:52;;;;;;;19.70;13.00;;;10.80;63.20;;;;;;5050859;28;20192;-60
2022/12/02 09:15:19;;;;;;;18.17;12.00;;;10.80;63.30;;;;;;5048013;28;20200;-59
2022/12/02 09:17:45;;;;;;;20.13;13.17;;;10.90;63.30;;;;;;5045825;28;20449;-59
2022/12/02 09:20:11;;;;;;;18.70;14.40;;;10.90;63.20;;;;;;5056748;28;20517;-60
2022/12/02 09:22:37;;;;;;;20.77;14.00;;;10.90;63.10;;;;;;5051209;28;20604;-60
2022/12/02 09:25:03;;;;;;;19.17;12.90;;;10.90;63.10;;;;;;5048919;28;20447;-60
2022/12/02 09:27:29;;;;;;;15.90;12.63;;;11.00;63.20;;;;;;5047143;28;20721;-59
2022/12/02 09:29:54;;;;;;;19.97;12.37;;;11.00;63.00;;;;;;5043370;28;20495;-60
2022/12/02 09:32:20;;;;;;;16.97;12.90;;;10.90;62.90;;;;;;5055331;28;20228;-60
2022/12/02 09:34:46;;;;;;;18.60;13.13;;;11.00;63.10;;;;;;5049295;28;20188;-59
2022/12/02 09:37:11;;;;;;;17.00;13.17;;;11.00;63.40;;;;;;5054307;28;20243;-59
2022/12/02 09:39:37;;;;;;;21.07;13.03;;;11.00;62.90;;;;;;5047831;28;20567;-59
2022/12/02 09:42:03;;;;;;;23.20;14.40;;;11.10;63.40;;;;;;5050485;28;20200;-59
2022/12/02 09:44:29;;;;;;;27.30;16.43;;;10.90;63.60;;;;;;5048456;28;20276;-60
2022/12/02 09:46:55;;;;;;;23.80;14.07;;;11.00;63.80;;;;;;5050326;28;20939;-59
2022/12/02 09:49:20;;;;;;;16.50;12.13;;;11.00;63.50;;;;;;5047693;28;20569;-60
2022/12/02 09:51:46;;;;;;;20.20;12.50;;;11.00;63.30;;;;;;5050038;28;20197;-59
2022/12/02 09:54:15;;;;;;;16.37;11.90;;;11.00;63.70;;;;;;5043353;28;20683;-59
2022/12/02 09:56:40;;;;;;;19.70;11.83;;;11.00;63.80;;;;;;5046160;28;20283;-59
2022/12/02 09:59:13;;;;;;;18.20;12.20;;;11.00;63.90;;;;;;5044809;28;20982;-59
2022/12/02 10:01:43;;;;;;;15.23;11.47;;;10.80;64.10;;;;;;5047151;28;20197;-59
2022/12/02 10:04:11;;;;;;;14.73;11.50;;;10.80;64.10;;;;;;5045613;28;20811;-59
2022/12/02 10:06:37;;;;;;;16.57;10.33;;;10.80;64.10;;;;;;5058850;28;20445;-59
2022/12/02 10:09:03;;;;;;;18.30;12.50;;;10.90;63.90;;;;;;5049314;28;20449;-60
2022/12/02 10:11:34;;;;;;;20.43;15.23;;;10.90;63.90;;;;;;5042516;28;20291;-60
2022/12/02 10:14:01;;;;;;;17.57;12.20;;;11.00;63.80;;;;;;5040294;28;20225;-59
2022/12/02 10:16:27;;;;;;;16.70;13.00;;;11.00;63.60;;;;;;5046562;28;22317;-59
2022/12/02 10:18:59;;;;;;;14.03;11.30;;;11.00;63.50;;;;;;5045970;28;20945;-59
2022/12/02 10:21:24;;;;;;;35.10;21.43;;;11.10;63.60;;;;;;5042127;28;20438;-60
2022/12/02 10:24:01;;;;;;;29.87;25.20;;;11.10;63.40;;;;;;5042827;28;22338;-59
2022/12/02 10:26:42;;;;;;;32.60;24.50;;;11.10;63.30;;;;;;5047493;28;20204;-59
2022/12/02 10:29:17;;;;;;;38.37;27.70;;;11.10;63.40;;;;;;5045799;28;20473;-60
2022/12/02 10:31:54;;;;;;;17.23;12.30;;;11.00;64.20;;;;;;5046642;28;20453;-60
2022/12/02 10:34:21;;;;;;;16.67;11.73;;;10.90;63.50;;;;;;5048763;28;21007;-60
2022/12/02 10:36:47;;;;;;;10.73;8.43;;;10.90;63.70;;;;;;5050449;28;21136;-60
2022/12/02 10:39:17;;;;;;;7.00;6.30;;;10.90;63.70;;;;;;5050081;28;20443;-60
2022/12/02 10:41:44;;;;;;;8.37;6.30;;;10.90;63.50;;;;;;5050751;28;20423;-60
2022/12/02 10:44:28;;;;;;;9.97;7.20;;;10.90;63.20;;;;;;5049544;28;20518;-60
2022/12/02 10:47:11;;;;;;;10.00;7.63;;;10.90;63.00;;;;;;5053596;28;20419;-60
2022/12/02 10:49:36;;;;;;;11.30;7.07;;;10.90;63.00;;;;;;5051587;28;20490;-60
2022/12/02 10:52:09;;;;;;;7.57;6.80;;;10.80;63.20;;;;;;5052025;28;20820;-60
2022/12/02 10:54:37;;;;;;;7.47;6.07;;;10.90;64.10;;;;;;5053641;28;20283;-60
2022/12/02 10:57:03;;;;;;;8.70;7.00;;;10.90;63.40;;;;;;5053425;28;20427;-60
2022/12/02 10:59:31;;;;;;;6.53;5.93;;;10.90;63.40;;;;;;5054319;28;20435;-60
2022/12/02 11:01:57;;;;;;;7.50;6.10;;;10.90;63.20;;;;;;5054181;28;20701;-60
2022/12/02 11:04:24;;;;;;;7.73;5.90;;;11.00;63.20;;;;;;5051057;28;20447;-60
2022/12/02 11:06:49;;;;;;;7.07;5.57;;;11.00;63.10;;;;;;5066193;28;20790;-60
2022/12/02 11:09:21;;;;;;;7.07;5.53;;;11.00;63.10;;;;;;5060778;28;20561;-60
2022/12/02 11:11:48;;;;;;;7.30;5.43;;;11.00;63.20;;;;;;5065409;28;20215;-60
2022/12/02 11:14:39;;;;;;;5.40;4.83;;;11.10;63.30;;;;;;5053276;28;20442;-60
2022/12/02 11:17:12;;;;;;;7.10;5.90;;;11.00;63.30;;;;;;5052360;28;20518;-60
2022/12/02 11:19:45;;;;;;;6.70;6.00;;;11.00;63.20;;;;;;5052563;28;20427;-60
2022/12/02 11:22:45;;;;;;;9.67;7.43;;;11.00;63.00;;;;;;5052686;28;20450;-60
2022/12/02 11:25:42;;;;;;;11.20;7.60;;;11.00;62.80;;;;;;5053143;28;20819;-60
2022/12/02 11:28:30;;;;;;;9.10;7.17;;;11.00;62.70;;;;;;5047919;28;20839;-60
2022/12/02 11:31:10;;;;;;;10.93;8.60;;;10.90;62.90;;;;;;5053742;28;20517;-60
2022/12/02 11:33:42;;;;;;;11.67;8.60;;;11.00;63.10;;;;;;5053083;28;20529;-60
2022/12/02 11:36:07;;;;;;;11.80;8.90;;;11.00;63.40;;;;;;5046340;28;20478;-60
2022/12/02 11:38:46;;;;;;;9.33;7.53;;;11.00;63.40;;;;;;5050899;28;20916;-60
2022/12/02 11:41:13;;;;;;;8.77;6.33;;;11.00;63.50;;;;;;5053628;28;20228;-60
2022/12/02 11:43:44;;;;;;;7.07;6.13;;;10.90;63.60;;;;;;5051916;28;20447;-60
2022/12/02 11:46:13;;;;;;;8.03;6.87;;;10.90;63.70;;;;;;5051240;28;20539;-60
2022/12/02 11:48:48;;;;;;;8.70;6.50;;;10.90;63.70;;;;;;5062118;28;20445;-60
2022/12/02 11:51:35;;;;;;;8.10;6.97;;;10.90;63.60;;;;;;5054163;28;20542;-60
2022/12/02 11:54:01;;;;;;;8.07;5.73;;;10.90;63.30;;;;;;5052768;28;20512;-60
2022/12/02 11:56:34;;;;;;;5.40;4.90;;;10.90;63.40;;;;;;5051851;28;21259;-60
2022/12/02 11:59:00;;;;;;;6.60;5.73;;;10.90;63.40;;;;;;5053920;28;20296;-60
2022/12/02 12:01:26;;;;;;;6.20;5.60;;;11.00;63.50;;;;;;5057413;28;20443;-60
2022/12/02 12:03:53;;;;;;;7.67;5.17;;;11.00;63.40;;;;;;5051786;28;20212;-60
2022/12/02 12:06:27;;;;;;;6.33;5.23;;;10.90;63.10;;;;;;5053222;28;20438;-61
2022/12/02 12:08:55;;;;;;;5.53;4.57;;;10.90;63.30;;;;;;5054802;28;20434;-60
2022/12/02 12:11:31;;;;;;;5.67;5.17;;;11.00;63.20;;;;;;5073183;28;20449;-60
2022/12/02 12:14:18;;;;;;;7.10;5.37;;;11.00;62.80;;;;;;5057317;28;20949;-60
2022/12/02 12:16:46;;;;;;;6.90;5.57;;;11.10;63.00;;;;;;5052466;28;20435;-60
2022/12/02 12:19:12;;;;;;;7.33;5.50;;;11.00;63.00;;;;;;5050573;28;20446;-60
2022/12/02 12:21:44;;;;;;;6.13;5.53;;;11.00;62.90;;;;;;5055270;28;20480;-60
2022/12/02 12:24:24;;;;;;;6.20;5.00;;;11.00;62.90;;;;;;5051970;28;20200;-60
2022/12/02 12:26:55;;;;;;;6.70;5.30;;;11.00;63.00;;;;;;5053613;28;20461;-60
2022/12/02 12:29:23;;;;;;;7.00;5.90;;;11.00;63.10;;;;;;5049748;28;20482;-60
2022/12/02 12:31:49;;;;;;;6.40;5.70;;;10.90;63.10;;;;;;5045807;28;20438;-61
2022/12/02 12:34:18;;;;;;;8.50;6.77;;;11.00;63.20;;;;;;5047470;28;21150;-61
2022/12/02 12:36:45;;;;;;;7.10;6.23;;;11.00;63.00;;;;;;5042645;28;20185;-59